createdAt,value
2018-11-26T06:23:28.322Z,1003.98
2018-11-26T06:24:28.288Z,1003.94
2018-11-26T06:25:28.281Z,1003.99
2018-11-26T06:26:28.267Z,1003.99
2018-11-26T06:27:28.272Z,1003.99
2018-11-26T06:28:28.244Z,1004.00
2018-11-26T06:29:28.255Z,1004.00
2018-11-26T06:30:28.232Z,1004.03
2018-11-26T06:31:28.243Z,1004.05
2018-11-26T06:32:28.208Z,1004.03
2018-11-26T06:33:28.219Z,1004.04
2018-11-26T06:34:28.203Z,1004.05
2018-11-26T06:35:28.176Z,1004.10
2018-11-26T06:36:28.163Z,1004.05
2018-11-26T06:37:28.170Z,1004.08
2018-11-26T06:38:28.150Z,1004.10
2018-11-26T06:39:28.633Z,1004.10
2018-11-26T06:40:28.123Z,1004.15
2018-11-26T06:41:28.121Z,1004.13
2018-11-26T06:42:28.099Z,1004.16
2018-11-26T06:43:28.092Z,1004.14
2018-11-26T06:44:28.125Z,1004.16
2018-11-26T06:45:28.073Z,1004.21
2018-11-26T06:46:28.060Z,1004.25
2018-11-26T06:47:28.050Z,1004.26
2018-11-26T06:48:28.039Z,1004.25
2018-11-26T06:49:28.064Z,1004.30
2018-11-26T06:50:28.020Z,1004.31
2018-11-26T06:51:28.014Z,1004.34
2018-11-26T06:52:27.998Z,1004.38
2018-11-26T06:53:27.988Z,1004.37
2018-11-26T06:54:28.010Z,1004.38
2018-11-26T06:55:27.973Z,1004.40
2018-11-26T06:56:27.957Z,1004.43
2018-11-26T06:57:27.954Z,1004.39
2018-11-26T06:58:27.935Z,1004.44
2018-11-26T06:59:27.958Z,1004.43
2018-11-26T07:00:27.917Z,1004.37
2018-11-26T07:01:27.911Z,1004.42
2018-11-26T07:02:27.930Z,1004.40
2018-11-26T07:03:27.884Z,1004.42
2018-11-26T07:04:27.905Z,1004.42
2018-11-26T07:05:27.866Z,1004.44
2018-11-26T07:06:27.854Z,1004.41
2018-11-26T07:07:27.844Z,1004.42
2018-11-26T07:08:34.869Z,1004.42
2018-11-26T07:09:27.839Z,1004.42
2018-11-26T07:10:27.814Z,1004.45
2018-11-26T07:11:27.807Z,1004.48
2018-11-26T07:12:27.808Z,1004.50
2018-11-26T07:13:27.785Z,1004.51
2018-11-26T07:14:27.789Z,1004.49
2018-11-26T07:15:27.788Z,1004.47
2018-11-26T07:16:27.750Z,1004.49
2018-11-26T07:17:27.740Z,1004.49
2018-11-26T07:18:27.740Z,1004.49
2018-11-26T07:19:27.744Z,1004.50
2018-11-26T07:20:27.710Z,1004.51
2018-11-26T07:21:27.705Z,1004.53
2018-11-26T07:22:27.692Z,1004.54
2018-11-26T07:23:27.696Z,1004.53
2018-11-26T07:24:27.699Z,1004.54
2018-11-26T07:25:27.666Z,1004.51
2018-11-26T07:26:27.652Z,1004.53
2018-11-26T07:27:27.640Z,1004.55
2018-11-26T07:28:27.634Z,1004.56
2018-11-26T07:29:27.647Z,1004.62
2018-11-26T07:30:27.634Z,1004.58
2018-11-26T07:31:27.599Z,1004.56
2018-11-26T07:32:27.590Z,1004.59
2018-11-26T07:33:27.578Z,1004.60
2018-11-26T07:34:27.584Z,1004.62
2018-11-26T07:35:27.565Z,1004.64
2018-11-26T07:36:27.548Z,1004.65
2018-11-26T07:37:27.538Z,1004.61
2018-11-26T07:38:27.530Z,1004.64
2018-11-26T07:39:27.533Z,1004.65
2018-11-26T07:40:27.518Z,1004.69
2018-11-26T07:41:27.508Z,1004.72
2018-11-26T07:42:27.487Z,1004.73
2018-11-26T07:43:27.479Z,1004.74
2018-11-26T07:44:27.491Z,1004.77
2018-11-26T07:45:27.457Z,1004.75
2018-11-26T07:46:27.485Z,1004.76
2018-11-26T07:47:27.447Z,1004.78
2018-11-26T07:48:27.435Z,1004.79
2018-11-26T07:49:27.432Z,1004.75
2018-11-26T07:50:27.444Z,1004.77
2018-11-26T07:51:27.397Z,1004.78
2018-11-26T07:52:27.385Z,1004.77
2018-11-26T07:53:27.379Z,1004.79
2018-11-26T07:54:27.397Z,1004.78
2018-11-26T07:55:27.355Z,1004.78
2018-11-26T07:56:27.353Z,1004.85
2018-11-26T07:57:27.334Z,1004.79
2018-11-26T07:58:27.327Z,1004.78
2018-11-26T07:59:27.324Z,1004.80
2018-11-26T08:00:27.348Z,1004.78
2018-11-26T08:01:27.295Z,1004.84
2018-11-26T08:02:27.292Z,1004.84
2018-11-26T08:03:27.273Z,1004.87
2018-11-26T08:04:27.265Z,1004.89
2018-11-26T08:05:27.270Z,1004.93
2018-11-26T08:06:27.247Z,1004.94
2018-11-26T08:07:27.240Z,1004.94
2018-11-26T08:08:27.225Z,1004.99
2018-11-26T08:09:27.214Z,1004.95
2018-11-26T08:10:27.217Z,1004.95
2018-11-26T08:11:27.195Z,1004.94
2018-11-26T08:12:27.266Z,1004.97
2018-11-26T08:13:27.174Z,1004.97
2018-11-26T08:14:27.200Z,1005.00
2018-11-26T08:15:27.178Z,1005.00
2018-11-26T08:16:27.141Z,1005.05
2018-11-26T08:17:27.132Z,1005.02
2018-11-26T08:18:27.124Z,1005.08
2018-11-26T08:19:27.115Z,1005.06
2018-11-26T08:20:27.116Z,1005.09
2018-11-26T08:21:27.090Z,1005.12
2018-11-26T08:22:27.080Z,1005.11
2018-11-26T08:23:27.299Z,1005.09
2018-11-26T08:24:27.070Z,1005.13
2018-11-26T08:25:27.109Z,1005.15
2018-11-26T08:26:27.039Z,1005.14
2018-11-26T08:27:27.076Z,1005.13
2018-11-26T08:28:27.019Z,1005.15
2018-11-26T08:29:27.008Z,1005.16
2018-11-26T08:30:27.027Z,1005.13
2018-11-26T08:31:26.994Z,1005.20
2018-11-26T08:32:27.746Z,1005.17
2018-11-26T08:33:27.967Z,1005.17
2018-11-26T08:34:26.959Z,1005.18
2018-11-26T08:35:26.961Z,1005.15
2018-11-26T08:36:26.954Z,1005.20
2018-11-26T08:37:26.928Z,1005.20
2018-11-26T08:38:26.916Z,1005.20
2018-11-26T08:39:26.904Z,1005.23
2018-11-26T08:40:26.913Z,1005.21
2018-11-26T08:41:26.885Z,1005.26
2018-11-26T08:42:26.883Z,1005.26
2018-11-26T08:43:26.865Z,1005.25
2018-11-26T08:44:26.863Z,1005.23
2018-11-26T08:45:26.862Z,1005.26
2018-11-26T08:46:26.841Z,1005.34
2018-11-26T08:47:26.822Z,1005.30
2018-11-26T08:48:26.818Z,1005.33
2018-11-26T08:49:26.816Z,1005.36
2018-11-26T08:50:26.820Z,1005.38
2018-11-26T08:51:26.781Z,1005.37
2018-11-26T08:52:26.770Z,1005.42
2018-11-26T08:53:26.774Z,1005.40
2018-11-26T08:54:26.752Z,1005.42
2018-11-26T08:55:26.755Z,1005.41
2018-11-26T08:56:26.761Z,1005.42
2018-11-26T08:57:26.718Z,1005.41
2018-11-26T08:58:26.709Z,1005.44
2018-11-26T08:59:26.702Z,1005.46
2018-11-26T09:00:26.703Z,1005.48
2018-11-26T09:01:26.677Z,1005.47
2018-11-26T09:02:26.687Z,1005.47
2018-11-26T09:03:26.671Z,1005.54
2018-11-26T09:04:26.644Z,1005.52
2018-11-26T09:05:26.660Z,1005.50
2018-11-26T09:06:26.628Z,1005.52
2018-11-26T09:07:26.611Z,1005.56
2018-11-26T09:08:26.612Z,1005.53
2018-11-26T09:09:26.748Z,1005.55
2018-11-26T09:10:26.609Z,1005.60
2018-11-26T09:11:26.584Z,1005.57
2018-11-26T09:12:26.558Z,1005.61
2018-11-26T09:13:26.551Z,1005.60
2018-11-26T09:14:26.549Z,1005.62
2018-11-26T09:15:26.529Z,1005.63
2018-11-26T09:16:26.540Z,1005.63
2018-11-26T09:17:26.507Z,1005.67
2018-11-26T09:18:26.494Z,1005.74
2018-11-26T09:19:26.483Z,1005.70
2018-11-26T09:20:26.487Z,1005.73
2018-11-26T09:21:26.479Z,1005.73
2018-11-26T09:22:26.451Z,1005.76
2018-11-26T09:23:26.450Z,1005.77
2018-11-26T09:24:26.434Z,1005.77
2018-11-26T09:25:26.420Z,1005.80
2018-11-26T09:26:26.448Z,1005.83
2018-11-26T09:27:26.403Z,1005.86
2018-11-26T09:28:26.397Z,1005.87
2018-11-26T09:29:26.378Z,1005.91
2018-11-26T09:30:26.367Z,1005.95
2018-11-26T09:31:26.371Z,1005.94
2018-11-26T09:32:26.360Z,1005.94
2018-11-26T09:33:26.338Z,1005.97
2018-11-26T09:34:26.329Z,1005.93
2018-11-26T09:35:26.315Z,1005.94
2018-11-26T09:36:26.319Z,1005.98
2018-11-26T09:37:26.295Z,1005.94
2018-11-26T09:38:26.281Z,1005.95
2018-11-26T09:39:26.280Z,1005.95
2018-11-26T09:40:26.266Z,1005.94
2018-11-26T09:41:26.264Z,1005.95
2018-11-26T09:42:26.238Z,1005.98
2018-11-26T09:43:26.227Z,1005.95
2018-11-26T09:44:26.230Z,1005.98
2018-11-26T09:45:26.216Z,1005.94
2018-11-26T09:46:26.215Z,1005.97
2018-11-26T09:47:26.190Z,1005.97
2018-11-26T09:48:26.176Z,1005.97
2018-11-26T09:49:26.165Z,1005.95
2018-11-26T09:50:26.158Z,1005.97
2018-11-26T09:51:26.178Z,1005.94
2018-11-26T09:52:26.143Z,1005.94
2018-11-26T09:53:26.122Z,1005.94
2018-11-26T09:54:26.207Z,1005.97
2018-11-26T09:55:26.147Z,1005.93
2018-11-26T09:56:26.110Z,1005.95
2018-11-26T09:57:26.089Z,1005.98
2018-11-26T09:58:26.071Z,1006.02
2018-11-26T09:59:26.061Z,1005.97
2018-11-26T10:00:26.049Z,1005.97
2018-11-26T10:01:26.056Z,1005.93
2018-11-26T10:02:26.029Z,1005.96
2018-11-26T10:03:26.026Z,1005.96
2018-11-26T10:04:26.023Z,1005.99
2018-11-26T10:05:26.000Z,1005.99
2018-11-26T10:06:25.999Z,1006.04
2018-11-26T10:07:25.975Z,1005.97
2018-11-26T10:08:25.964Z,1005.98
2018-11-26T10:09:25.965Z,1006.02
2018-11-26T10:10:25.965Z,1006.06
2018-11-26T10:11:25.984Z,1006.02
2018-11-26T10:12:25.923Z,1006.01
2018-11-26T10:13:25.910Z,1006.05
2018-11-26T10:14:25.901Z,1006.04
2018-11-26T10:15:25.909Z,1006.05
2018-11-26T10:16:25.893Z,1006.01
2018-11-26T10:17:25.873Z,1006.03
2018-11-26T10:18:25.863Z,1006.02
2018-11-26T10:19:25.847Z,1005.99
2018-11-26T10:20:25.840Z,1006.00
2018-11-26T10:21:25.858Z,1006.01
2018-11-26T10:22:25.815Z,1006.02
2018-11-26T10:23:25.829Z,1006.04
2018-11-26T10:24:25.795Z,1006.02
2018-11-26T10:25:25.785Z,1006.05
2018-11-26T10:26:25.776Z,1006.01
2018-11-26T10:27:25.781Z,1006.02
2018-11-26T10:28:25.762Z,1006.01
2018-11-26T10:29:25.756Z,1006.00
2018-11-26T10:30:25.731Z,1006.05
2018-11-26T10:31:25.724Z,1006.02
2018-11-26T10:32:25.726Z,1005.99
2018-11-26T10:33:25.703Z,1006.00
2018-11-26T10:34:25.692Z,1005.94
2018-11-26T10:35:25.683Z,1005.97
2018-11-26T10:36:25.668Z,1005.94
2018-11-26T10:37:25.674Z,1005.98
2018-11-26T10:38:25.647Z,1005.96
2018-11-26T10:39:25.638Z,1005.98
2018-11-26T10:40:25.633Z,1005.95
2018-11-26T10:41:25.629Z,1005.92
2018-11-26T10:42:25.625Z,1005.96
2018-11-26T10:43:25.606Z,1006.00
2018-11-26T10:44:25.599Z,1005.96
2018-11-26T10:45:25.618Z,1005.95
2018-11-26T10:46:25.569Z,1005.95
2018-11-26T10:47:25.628Z,1005.97
2018-11-26T10:48:25.550Z,1005.93
2018-11-26T10:49:25.534Z,1005.97
2018-11-26T10:50:25.521Z,1005.94
2018-11-26T10:51:25.525Z,1005.95
2018-11-26T10:52:25.533Z,1005.95
2018-11-26T10:53:25.489Z,1005.98
2018-11-26T10:54:25.480Z,1005.96
2018-11-26T10:55:25.471Z,1005.98
2018-11-26T10:56:25.462Z,1005.97
2018-11-26T10:57:25.465Z,1006.00
2018-11-26T10:58:25.439Z,1005.98
2018-11-26T10:59:25.459Z,1006.01
2018-11-26T11:00:25.418Z,1006.01
2018-11-26T11:01:25.402Z,1006.05
2018-11-26T11:02:25.427Z,1006.02
2018-11-26T11:03:25.384Z,1006.03
2018-11-26T11:04:25.377Z,1006.01
2018-11-26T11:05:25.382Z,1006.07
2018-11-26T11:06:25.351Z,1006.03
2018-11-26T11:07:25.357Z,1006.00
2018-11-26T11:08:25.329Z,1006.01
2018-11-26T11:09:25.318Z,1006.02
2018-11-26T11:10:25.325Z,1006.01
2018-11-26T11:11:25.304Z,1006.05
2018-11-26T11:12:25.304Z,1005.99
2018-11-26T11:13:25.275Z,1006.02
2018-11-26T11:14:25.270Z,1006.04
2018-11-26T11:15:25.254Z,1006.07
2018-11-26T11:16:25.253Z,1006.08
2018-11-26T11:17:25.254Z,1006.03
2018-11-26T11:18:25.238Z,1006.04
2018-11-26T11:19:25.212Z,1006.07
2018-11-26T11:20:25.210Z,1006.05
2018-11-26T11:21:25.191Z,1006.09
2018-11-26T11:22:25.223Z,1006.07
2018-11-26T11:23:25.177Z,1006.08
2018-11-26T11:24:25.160Z,1006.13
2018-11-26T11:25:25.153Z,1006.15
2018-11-26T11:26:25.145Z,1006.17
2018-11-26T11:27:25.139Z,1006.21
2018-11-26T11:28:25.133Z,1006.20
2018-11-26T11:29:25.110Z,1006.17
2018-11-26T11:30:25.101Z,1006.20
2018-11-26T11:31:25.092Z,1006.17
2018-11-26T11:32:25.076Z,1006.19
2018-11-26T11:34:25.056Z,1006.18
2018-11-26T11:35:25.050Z,1006.15
2018-11-26T11:36:25.033Z,1006.19
2018-11-26T11:37:25.023Z,1006.20
2018-11-26T11:38:25.026Z,1006.15
2018-11-26T11:39:25.022Z,1006.13
2018-11-26T11:40:25.007Z,1006.13
2018-11-26T11:41:24.999Z,1006.15
2018-11-26T11:42:25.005Z,1006.16
2018-11-26T11:43:25.025Z,1006.17
2018-11-26T11:44:24.974Z,1006.21
2018-11-26T11:45:24.972Z,1006.15
2018-11-26T11:46:24.943Z,1006.16
2018-11-26T11:47:24.938Z,1006.14
2018-11-26T11:48:24.927Z,1006.17
2018-11-26T11:49:24.894Z,1006.12
2018-11-26T11:50:24.912Z,1006.14
2018-11-26T11:51:24.899Z,1006.12
2018-11-26T11:52:24.879Z,1006.13
2018-11-26T11:53:24.946Z,1006.09
2018-11-26T11:54:24.876Z,1006.08
2018-11-26T11:55:24.832Z,1006.05
2018-11-26T11:56:24.822Z,1006.05
2018-11-26T11:57:24.812Z,1006.08
2018-11-26T11:58:24.816Z,1006.05
2018-11-26T11:59:24.814Z,1006.04
2018-11-26T12:00:24.778Z,1006.02
2018-11-26T12:01:24.767Z,1006.03
2018-11-26T12:02:24.790Z,1006.02
2018-11-26T12:03:24.825Z,1006.04
2018-11-26T12:04:24.783Z,1006.02
2018-11-26T12:05:24.736Z,1006.03
2018-11-26T12:06:24.736Z,1006.04
2018-11-26T12:07:24.703Z,1006.01
2018-11-26T12:08:24.725Z,1006.04
2018-11-26T12:09:24.683Z,1006.05
2018-11-26T12:10:24.676Z,1006.06
2018-11-26T12:11:24.669Z,1006.04
2018-11-26T12:12:24.658Z,1006.05
2018-11-26T12:13:24.639Z,1006.03
2018-11-26T12:14:24.992Z,1006.04
2018-11-26T12:15:24.651Z,1006.06
2018-11-26T12:16:24.611Z,1006.08
2018-11-26T12:17:24.598Z,1006.05
2018-11-26T12:18:24.602Z,1006.06
2018-11-26T12:19:24.592Z,1006.03
2018-11-26T12:20:24.565Z,1006.02
2018-11-26T12:21:24.563Z,1006.04
2018-11-26T12:22:24.548Z,1006.08
2018-11-26T12:23:24.533Z,1006.08
2018-11-26T12:24:24.550Z,1006.04
2018-11-26T12:25:24.512Z,1006.09
2018-11-26T12:26:24.501Z,1006.06
2018-11-26T12:27:24.500Z,1006.08
2018-11-26T12:28:24.482Z,1006.08
2018-11-26T12:29:24.489Z,1006.06
2018-11-26T12:30:24.482Z,1006.07
2018-11-26T12:31:24.449Z,1006.06
2018-11-26T12:32:24.440Z,1006.02
2018-11-26T12:33:24.430Z,1006.05
2018-11-26T12:34:24.433Z,1006.05
2018-11-26T12:35:24.413Z,1006.02
2018-11-26T12:36:24.430Z,1006.05
2018-11-26T12:37:24.388Z,1006.07
2018-11-26T12:38:24.379Z,1006.07
2018-11-26T12:39:24.386Z,1006.04
2018-11-26T12:40:24.390Z,1006.09
2018-11-26T12:41:24.347Z,1006.11
2018-11-26T12:42:24.346Z,1006.08
2018-11-26T12:43:24.329Z,1006.10
2018-11-26T12:44:24.331Z,1006.10
2018-11-26T12:45:24.304Z,1006.07
2018-11-26T12:46:24.304Z,1006.10
2018-11-26T12:47:24.287Z,1006.10
2018-11-26T12:48:24.287Z,1006.14
2018-11-26T12:49:24.603Z,1006.09
2018-11-26T12:50:24.252Z,1006.09
2018-11-26T12:51:24.241Z,1006.11
2018-11-26T12:52:24.229Z,1006.14
2018-11-26T12:53:24.221Z,1006.11
2018-11-26T12:54:24.229Z,1006.09
2018-11-26T12:55:24.200Z,1006.08
2018-11-26T12:56:24.190Z,1006.09
2018-11-26T12:57:24.177Z,1006.08
2018-11-26T12:58:24.165Z,1006.10
2018-11-26T12:59:24.177Z,1006.07
2018-11-26T13:00:24.161Z,1006.09
2018-11-26T13:01:24.136Z,1006.10
2018-11-26T13:02:24.130Z,1006.14
2018-11-26T13:03:24.117Z,1006.13
2018-11-26T13:04:24.120Z,1006.09
2018-11-26T13:05:24.094Z,1006.11
2018-11-26T13:06:24.091Z,1006.04
2018-11-26T13:07:24.074Z,1006.05
2018-11-26T13:08:24.063Z,1006.02
2018-11-26T13:09:24.066Z,1006.04
2018-11-26T13:10:24.045Z,1006.03
2018-11-26T13:11:24.030Z,1006.08
2018-11-26T13:12:24.389Z,1006.03
2018-11-26T13:13:24.009Z,1006.06
2018-11-26T13:14:24.016Z,1006.02
2018-11-26T13:15:23.989Z,1006.06
2018-11-26T13:16:23.977Z,1006.07
2018-11-26T13:17:23.968Z,1006.00
2018-11-26T13:18:23.965Z,1006.01
2018-11-26T13:19:23.981Z,1005.99
2018-11-26T13:20:23.937Z,1006.00
2018-11-26T13:21:23.926Z,1005.98
2018-11-26T13:22:23.914Z,1005.96
2018-11-26T13:23:23.909Z,1005.98
2018-11-26T13:24:23.896Z,1005.95
2018-11-26T13:25:23.918Z,1005.95
2018-11-26T13:26:23.877Z,1005.96
2018-11-26T13:27:23.861Z,1006.01
2018-11-26T13:28:23.854Z,1006.00
2018-11-26T13:29:23.842Z,1005.99
2018-11-26T13:30:23.865Z,1005.97
2018-11-26T13:31:23.828Z,1005.99
2018-11-26T13:32:23.822Z,1005.96
2018-11-26T13:33:23.802Z,1006.01
2018-11-26T13:34:23.790Z,1006.00
2018-11-26T13:35:24.071Z,1006.06
2018-11-26T13:36:23.773Z,1006.04
2018-11-26T13:37:23.761Z,1006.04
2018-11-26T13:38:23.791Z,1006.06
2018-11-26T13:39:23.736Z,1006.06
2018-11-26T13:40:23.751Z,1006.11
2018-11-26T13:41:23.716Z,1006.10
2018-11-26T13:42:23.715Z,1006.13
2018-11-26T13:43:23.695Z,1006.10
2018-11-26T13:44:23.711Z,1006.10
2018-11-26T13:45:23.690Z,1006.14
2018-11-26T13:46:23.670Z,1006.12
2018-11-26T13:47:23.656Z,1006.13
2018-11-26T13:48:23.649Z,1006.11
2018-11-26T13:49:23.633Z,1006.16
2018-11-26T13:50:23.645Z,1006.17
2018-11-26T13:51:23.611Z,1006.15
2018-11-26T13:52:23.601Z,1006.16
2018-11-26T13:53:23.591Z,1006.20
2018-11-26T13:54:23.583Z,1006.19
2018-11-26T13:55:23.606Z,1006.19
2018-11-26T13:56:23.570Z,1006.23
2018-11-26T13:57:23.627Z,1006.19
2018-11-26T13:58:23.539Z,1006.25
2018-11-26T13:59:23.526Z,1006.26
2018-11-26T14:00:23.542Z,1006.22
2018-11-26T14:01:23.513Z,1006.24
2018-11-26T14:02:23.498Z,1006.27
2018-11-26T14:03:23.487Z,1006.28
2018-11-26T14:04:23.487Z,1006.27
2018-11-26T14:05:23.501Z,1006.30
2018-11-26T14:06:23.454Z,1006.29
2018-11-26T14:07:23.451Z,1006.26
2018-11-26T14:08:23.433Z,1006.28
2018-11-26T14:09:23.424Z,1006.23
2018-11-26T14:10:23.450Z,1006.27
2018-11-26T14:11:23.443Z,1006.23
2018-11-26T14:12:23.459Z,1006.25
2018-11-26T14:13:23.388Z,1006.23
2018-11-26T14:14:23.369Z,1006.25
2018-11-26T14:15:23.390Z,1006.30
2018-11-26T14:16:23.350Z,1006.27
2018-11-26T14:17:23.337Z,1006.30
2018-11-26T14:18:23.335Z,1006.31
2018-11-26T14:19:23.325Z,1006.32
2018-11-26T14:20:23.323Z,1006.34
2018-11-26T14:21:23.310Z,1006.35
2018-11-26T14:22:23.283Z,1006.33
2018-11-26T14:23:23.311Z,1006.30
2018-11-26T14:24:23.269Z,1006.34
2018-11-26T14:25:23.297Z,1006.36
2018-11-26T14:26:23.242Z,1006.34
2018-11-26T14:27:23.231Z,1006.43
2018-11-26T14:28:23.220Z,1006.38
2018-11-26T14:29:23.228Z,1006.39
2018-11-26T14:30:23.231Z,1006.42
2018-11-26T14:31:23.190Z,1006.42
2018-11-26T14:32:23.187Z,1006.43
2018-11-26T14:33:23.213Z,1006.43
2018-11-26T14:34:23.156Z,1006.42
2018-11-26T14:35:23.163Z,1006.43
2018-11-26T14:36:23.400Z,1006.45
2018-11-26T14:37:23.135Z,1006.43
2018-11-26T14:38:23.113Z,1006.45
2018-11-26T14:39:23.171Z,1006.49
2018-11-26T14:40:23.181Z,1006.51
2018-11-26T14:41:23.081Z,1006.48
2018-11-26T14:42:23.074Z,1006.49
2018-11-26T14:43:23.060Z,1006.48
2018-11-26T14:44:23.056Z,1006.55
2018-11-26T14:45:23.063Z,1006.48
2018-11-26T14:46:23.027Z,1006.53
2018-11-26T14:47:23.023Z,1006.51
2018-11-26T14:48:23.006Z,1006.51
2018-11-26T14:49:22.999Z,1006.47
2018-11-26T14:50:22.985Z,1006.49
2018-11-26T14:51:22.997Z,1006.52
2018-11-26T14:52:22.965Z,1006.54
2018-11-26T14:53:22.961Z,1006.54
2018-11-26T14:54:22.948Z,1006.51
2018-11-26T14:55:22.934Z,1006.62
2018-11-26T14:56:22.943Z,1006.59
2018-11-26T14:57:22.912Z,1006.60
2018-11-26T14:58:22.903Z,1006.61
2018-11-26T14:59:22.909Z,1006.60
2018-11-26T15:00:22.887Z,1006.62
2018-11-26T15:01:22.896Z,1006.63
2018-11-26T15:02:22.863Z,1006.63
2018-11-26T15:03:22.853Z,1006.63
2018-11-26T15:04:22.846Z,1006.62
2018-11-26T15:05:22.843Z,1006.63
2018-11-26T15:06:22.835Z,1006.64
2018-11-26T15:07:22.810Z,1006.66
2018-11-26T15:08:22.818Z,1006.63
2018-11-26T15:09:22.790Z,1006.66
2018-11-26T15:10:22.779Z,1006.64
2018-11-26T15:11:22.788Z,1006.66
2018-11-26T15:12:22.759Z,1006.66
2018-11-26T15:13:22.751Z,1006.69
2018-11-26T15:14:22.742Z,1006.66
2018-11-26T15:15:22.730Z,1006.68
2018-11-26T15:16:22.733Z,1006.68
2018-11-26T15:17:22.716Z,1006.70
2018-11-26T15:18:22.698Z,1006.69
2018-11-26T15:19:22.687Z,1006.75
2018-11-26T15:20:22.681Z,1006.73
2018-11-26T15:21:22.683Z,1006.76
2018-11-26T15:22:22.657Z,1006.79
2018-11-26T15:23:22.651Z,1006.75
2018-11-26T15:24:22.677Z,1006.73
2018-11-26T15:25:22.626Z,1006.77
2018-11-26T15:26:22.630Z,1006.77
2018-11-26T15:27:22.604Z,1006.79
2018-11-26T15:28:22.594Z,1006.81
2018-11-26T15:29:22.587Z,1006.75
2018-11-26T15:30:22.574Z,1006.76
2018-11-26T15:31:22.578Z,1006.74
2018-11-26T15:32:22.561Z,1006.78
2018-11-26T15:33:22.541Z,1006.74
2018-11-26T15:34:22.531Z,1006.78
2018-11-26T15:35:22.525Z,1006.80
2018-11-26T15:36:22.529Z,1006.78
2018-11-26T15:37:22.522Z,1006.78
2018-11-26T15:38:22.491Z,1006.78
2018-11-26T15:39:22.484Z,1006.79
2018-11-26T15:40:22.474Z,1006.83
2018-11-26T15:41:22.485Z,1006.76
2018-11-26T15:42:22.451Z,1006.80
2018-11-26T15:43:22.442Z,1006.83
2018-11-26T15:44:22.433Z,1006.83
2018-11-26T15:45:22.419Z,1006.84
2018-11-26T15:46:22.424Z,1006.86
2018-11-26T15:47:22.413Z,1006.88
2018-11-26T15:48:22.393Z,1006.86
2018-11-26T15:49:22.378Z,1006.88
2018-11-26T15:50:22.369Z,1006.89
2018-11-26T15:51:22.377Z,1006.90
2018-11-26T15:52:22.385Z,1006.89
2018-11-26T15:53:22.345Z,1006.88
2018-11-26T15:54:22.344Z,1006.89
2018-11-26T15:55:22.324Z,1006.90
2018-11-26T15:56:22.343Z,1006.96
2018-11-26T15:57:22.302Z,1006.94
2018-11-26T15:58:23.759Z,1006.92
2018-11-26T15:59:22.276Z,1006.94
2018-11-26T16:00:22.273Z,1006.92
2018-11-26T16:01:23.259Z,1006.95
2018-11-26T16:02:22.254Z,1006.97
2018-11-26T16:03:22.241Z,1006.93
2018-11-26T16:04:22.335Z,1006.99
2018-11-26T16:05:22.214Z,1007.01
2018-11-26T16:06:22.203Z,1006.97
2018-11-26T16:07:22.215Z,1006.94
2018-11-26T16:08:22.199Z,1006.93
2018-11-26T16:09:22.182Z,1006.93
2018-11-26T16:10:22.163Z,1006.96
2018-11-26T16:11:22.162Z,1006.93
2018-11-26T16:12:22.163Z,1006.97
2018-11-26T16:13:22.132Z,1006.98
2018-11-26T16:14:22.126Z,1006.94
2018-11-26T16:15:22.119Z,1006.93
2018-11-26T16:16:22.104Z,1007.01
2018-11-26T16:17:22.150Z,1007.01
2018-11-26T16:18:22.090Z,1006.95
2018-11-26T16:19:22.069Z,1007.03
2018-11-26T16:20:22.064Z,1007.09
2018-11-26T16:21:22.060Z,1007.05
2018-11-26T16:22:22.060Z,1007.08
2018-11-26T16:23:22.038Z,1007.11
2018-11-26T16:24:22.020Z,1007.09
2018-11-26T16:25:22.017Z,1007.13
2018-11-26T16:26:21.999Z,1007.12
2018-11-26T16:27:22.006Z,1007.14
2018-11-26T16:28:21.990Z,1007.16
2018-11-26T16:29:21.968Z,1007.13
2018-11-26T16:30:21.957Z,1007.19
2018-11-26T16:31:21.950Z,1007.14
2018-11-26T16:32:21.953Z,1007.13
2018-11-26T16:33:21.929Z,1007.13
2018-11-26T16:34:21.925Z,1007.13
2018-11-26T16:35:21.912Z,1007.18
2018-11-26T16:36:21.895Z,1007.15
2018-11-26T16:37:21.903Z,1007.15
2018-11-26T16:38:21.874Z,1007.19
2018-11-26T16:39:21.878Z,1007.24
2018-11-26T16:40:21.859Z,1007.22
2018-11-26T16:41:21.865Z,1007.18
2018-11-26T16:42:21.846Z,1007.23
2018-11-26T16:43:21.819Z,1007.21
2018-11-26T16:44:21.809Z,1007.26
2018-11-26T16:45:21.800Z,1007.27
2018-11-26T16:46:21.821Z,1007.27
2018-11-26T16:47:21.801Z,1007.31
2018-11-26T16:48:21.770Z,1007.31
2018-11-26T16:49:21.760Z,1007.31
2018-11-26T16:50:21.746Z,1007.29
2018-11-26T16:51:21.745Z,1007.29
2018-11-26T16:52:21.743Z,1007.30
2018-11-26T16:53:21.754Z,1007.29
2018-11-26T16:54:21.708Z,1007.29
2018-11-26T16:55:21.701Z,1007.33
2018-11-26T16:56:21.688Z,1007.32
2018-11-26T16:57:21.690Z,1007.31
2018-11-26T16:58:21.688Z,1007.27
2018-11-26T16:59:21.655Z,1007.32
2018-11-26T17:00:21.641Z,1007.32
2018-11-26T17:01:21.637Z,1007.29
2018-11-26T17:02:21.637Z,1007.30
2018-11-26T17:03:21.610Z,1007.31
2018-11-26T17:04:21.604Z,1007.33
2018-11-26T17:05:22.488Z,1007.34
2018-11-26T17:06:21.581Z,1007.36
2018-11-26T17:07:21.607Z,1007.38
2018-11-26T17:08:21.567Z,1007.41
2018-11-26T17:09:21.546Z,1007.40
2018-11-26T17:10:21.545Z,1007.41
2018-11-26T17:11:21.545Z,1007.43
2018-11-26T17:12:21.531Z,1007.49
2018-11-26T17:13:21.506Z,1007.47
2018-11-26T17:14:21.502Z,1007.48
2018-11-26T17:15:21.485Z,1007.49
2018-11-26T17:16:21.479Z,1007.51
2018-11-26T17:17:21.481Z,1007.52
2018-11-26T17:18:21.455Z,1007.58
2018-11-26T17:19:21.449Z,1007.56
2018-11-26T17:20:21.436Z,1007.59
2018-11-26T17:21:21.460Z,1007.58
2018-11-26T17:22:21.439Z,1007.59
2018-11-26T17:23:21.404Z,1007.58
2018-11-26T17:24:21.394Z,1007.59
2018-11-26T17:25:21.385Z,1007.65
2018-11-26T17:26:21.389Z,1007.61
2018-11-26T17:27:21.378Z,1007.59
2018-11-26T17:28:21.354Z,1007.65
2018-11-26T17:29:21.381Z,1007.61
2018-11-26T17:30:21.330Z,1007.64
2018-11-26T17:31:21.324Z,1007.66
2018-11-26T17:32:21.340Z,1007.58
2018-11-26T17:33:21.310Z,1007.64
2018-11-26T17:34:21.289Z,1007.67
2018-11-26T17:35:21.288Z,1007.70
2018-11-26T17:36:21.270Z,1007.69
2018-11-26T17:37:21.284Z,1007.68
2018-11-26T17:38:21.273Z,1007.71
2018-11-26T17:39:21.238Z,1007.75
2018-11-26T17:40:21.239Z,1007.72
2018-11-26T17:41:21.226Z,1007.72
2018-11-26T17:42:21.207Z,1007.69
2018-11-26T17:43:21.211Z,1007.70
2018-11-26T17:44:21.212Z,1007.75
2018-11-26T17:45:21.191Z,1007.75
2018-11-26T17:46:21.168Z,1007.78
2018-11-26T17:47:21.156Z,1007.77
2018-11-26T17:48:21.162Z,1007.81
2018-11-26T17:49:21.140Z,1007.82
2018-11-26T17:50:21.152Z,1007.84
2018-11-26T17:51:21.114Z,1007.87
2018-11-26T17:52:21.105Z,1007.87
2018-11-26T17:53:21.121Z,1007.89
2018-11-26T17:54:21.089Z,1007.89
2018-11-26T17:55:21.075Z,1007.90
2018-11-26T17:56:21.070Z,1007.93
2018-11-26T17:57:21.051Z,1007.92
2018-11-26T17:58:21.063Z,1007.95
2018-11-26T17:59:21.037Z,1007.97
2018-11-26T18:00:21.032Z,1007.97
2018-11-26T18:01:21.011Z,1007.96
2018-11-26T18:02:21.006Z,1007.96
2018-11-26T18:03:21.020Z,1008.00
2018-11-26T18:04:20.979Z,1007.98
2018-11-26T18:05:20.969Z,1007.95
2018-11-26T18:06:20.972Z,1007.99
2018-11-26T18:07:20.952Z,1008.05
2018-11-26T18:08:20.962Z,1008.01
2018-11-26T18:09:22.923Z,1008.02
2018-11-26T18:10:20.917Z,1008.05
2018-11-26T18:11:20.909Z,1008.01
2018-11-26T18:12:20.898Z,1008.03
2018-11-26T18:13:20.929Z,1008.08
2018-11-26T18:14:20.894Z,1008.07
2018-11-26T18:15:20.876Z,1008.07
2018-11-26T18:16:20.867Z,1008.09
2018-11-26T18:17:20.847Z,1008.10
2018-11-26T18:18:20.856Z,1008.13
2018-11-26T18:19:20.824Z,1008.11
2018-11-26T18:20:20.813Z,1008.15
2018-11-26T18:21:20.807Z,1008.17
2018-11-26T18:22:20.802Z,1008.18
2018-11-26T18:23:20.800Z,1008.12
2018-11-26T18:24:20.777Z,1008.16
2018-11-26T18:25:20.764Z,1008.22
2018-11-26T18:26:20.784Z,1008.20
2018-11-26T18:27:20.742Z,1008.17
2018-11-26T18:28:20.797Z,1008.21
2018-11-26T18:29:20.722Z,1008.16